sensor_id;sensor_type;location;lat;lon;timestamp;P1;durP1;ratioP1;P2;durP2;ratioP2
6117;SDS011;3089;48.202;11.510;2023-03-08T00:00:41;14.70;;;6.23;;
6117;SDS011;3089;48.202;11.510;2023-03-08T00:03:11;13.60;;;5.40;;
6117;SDS011;3089;48.202;11.510;2023-03-08T00:05:40;13.87;;;5.77;;
6117;SDS011;3089;48.202;11.510;2023-03-08T00:08:08;9.50;;;4.40;;
6117;SDS011;3089;48.202;11.510;2023-03-08T00:10:37;12.40;;;4.23;;
6117;SDS011;3089;48.202;11.510;2023-03-08T00:13:05;12.70;;;5.77;;
6117;SDS011;3089;48.202;11.510;2023-03-08T00:15:34;12.70;;;5.57;;
6117;SDS011;3089;48.202;11.510;2023-03-08T00:18:03;9.50;;;3.60;;
6117;SDS011;3089;48.202;11.510;2023-03-08T00:20:31;14.87;;;6.40;;
6117;SDS011;3089;48.202;11.510;2023-03-08T00:22:59;11.40;;;5.30;;
6117;SDS011;3089;48.202;11.510;2023-03-08T00:25:27;13.80;;;4.70;;
6117;SDS011;3089;48.202;11.510;2023-03-08T00:27:56;12.20;;;5.40;;
6117;SDS011;3089;48.202;11.510;2023-03-08T00:30:24;15.00;;;6.10;;
6117;SDS011;3089;48.202;11.510;2023-03-08T00:32:52;11.43;;;5.27;;
6117;SDS011;3089;48.202;11.510;2023-03-08T00:35:20;15.40;;;5.40;;
6117;SDS011;3089;48.202;11.510;2023-03-08T00:37:48;19.23;;;6.50;;
6117;SDS011;3089;48.202;11.510;2023-03-08T00:40:15;13.60;;;5.50;;
6117;SDS011;3089;48.202;11.510;2023-03-08T00:42:44;12.87;;;4.83;;
6117;SDS011;3089;48.202;11.510;2023-03-08T00:45:13;11.50;;;5.60;;
6117;SDS011;3089;48.202;11.510;2023-03-08T00:47:41;14.10;;;5.27;;
6117;SDS011;3089;48.202;11.510;2023-03-08T00:50:09;16.70;;;6.03;;
6117;SDS011;3089;48.202;11.510;2023-03-08T00:52:37;11.60;;;5.30;;
6117;SDS011;3089;48.202;11.510;2023-03-08T00:55:05;12.10;;;6.00;;
6117;SDS011;3089;48.202;11.510;2023-03-08T00:57:34;10.43;;;5.20;;
6117;SDS011;3089;48.202;11.510;2023-03-08T01:00:01;12.90;;;5.07;;
6117;SDS011;3089;48.202;11.510;2023-03-08T01:02:34;13.40;;;5.50;;
6117;SDS011;3089;48.202;11.510;2023-03-08T01:05:02;12.60;;;5.93;;
6117;SDS011;3089;48.202;11.510;2023-03-08T01:07:30;11.37;;;5.47;;
6117;SDS011;3089;48.202;11.510;2023-03-08T01:09:58;14.20;;;5.47;;
6117;SDS011;3089;48.202;11.510;2023-03-08T01:12:26;13.20;;;5.17;;
6117;SDS011;3089;48.202;11.510;2023-03-08T01:14:54;9.80;;;4.87;;
6117;SDS011;3089;48.202;11.510;2023-03-08T01:17:22;17.70;;;5.57;;
6117;SDS011;3089;48.202;11.510;2023-03-08T01:19:51;10.80;;;5.43;;
6117;SDS011;3089;48.202;11.510;2023-03-08T01:22:19;14.77;;;5.00;;
6117;SDS011;3089;48.202;11.510;2023-03-08T01:24:49;9.87;;;4.23;;
6117;SDS011;3089;48.202;11.510;2023-03-08T01:27:17;12.20;;;5.10;;
6117;SDS011;3089;48.202;11.510;2023-03-08T01:29:45;13.60;;;5.23;;
6117;SDS011;3089;48.202;11.510;2023-03-08T01:32:13;10.60;;;5.03;;
6117;SDS011;3089;48.202;11.510;2023-03-08T01:34:41;12.40;;;4.33;;
6117;SDS011;3089;48.202;11.510;2023-03-08T01:37:10;8.90;;;4.50;;
6117;SDS011;3089;48.202;11.510;2023-03-08T01:39:38;13.67;;;5.73;;
6117;SDS011;3089;48.202;11.510;2023-03-08T01:42:06;8.90;;;4.13;;
6117;SDS011;3089;48.202;11.510;2023-03-08T01:44:50;12.27;;;4.90;;
6117;SDS011;3089;48.202;11.510;2023-03-08T01:47:20;11.70;;;5.13;;
6117;SDS011;3089;48.202;11.510;2023-03-08T01:49:49;10.80;;;4.37;;
6117;SDS011;3089;48.202;11.510;2023-03-08T01:52:20;8.93;;;4.03;;
6117;SDS011;3089;48.202;11.510;2023-03-08T01:54:51;10.27;;;4.37;;
6117;SDS011;3089;48.202;11.510;2023-03-08T01:57:22;13.73;;;4.80;;
6117;SDS011;3089;48.202;11.510;2023-03-08T01:59:54;13.23;;;5.43;;
6117;SDS011;3089;48.202;11.510;2023-03-08T02:02:26;7.97;;;3.97;;
6117;SDS011;3089;48.202;11.510;2023-03-08T02:04:59;11.57;;;5.10;;
6117;SDS011;3089;48.202;11.510;2023-03-08T02:07:29;10.97;;;4.90;;
6117;SDS011;3089;48.202;11.510;2023-03-08T02:09:57;9.83;;;4.90;;
6117;SDS011;3089;48.202;11.510;2023-03-08T02:12:25;11.33;;;5.27;;
6117;SDS011;3089;48.202;11.510;2023-03-08T02:14:53;10.60;;;4.93;;
6117;SDS011;3089;48.202;11.510;2023-03-08T02:17:23;14.13;;;5.50;;
6117;SDS011;3089;48.202;11.510;2023-03-08T02:19:53;14.53;;;4.63;;
6117;SDS011;3089;48.202;11.510;2023-03-08T02:22:25;11.33;;;5.43;;
6117;SDS011;3089;48.202;11.510;2023-03-08T02:24:54;7.00;;;3.30;;
6117;SDS011;3089;48.202;11.510;2023-03-08T02:27:23;8.57;;;4.30;;
6117;SDS011;3089;48.202;11.510;2023-03-08T02:29:53;11.00;;;5.27;;
6117;SDS011;3089;48.202;11.510;2023-03-08T02:32:21;13.50;;;5.93;;
6117;SDS011;3089;48.202;11.510;2023-03-08T02:34:49;10.33;;;4.63;;
6117;SDS011;3089;48.202;11.510;2023-03-08T02:37:16;12.93;;;5.10;;
6117;SDS011;3089;48.202;11.510;2023-03-08T02:39:44;8.80;;;4.80;;
6117;SDS011;3089;48.202;11.510;2023-03-08T02:42:13;13.03;;;5.87;;
6117;SDS011;3089;48.202;11.510;2023-03-08T02:44:41;11.20;;;5.13;;
6117;SDS011;3089;48.202;11.510;2023-03-08T02:47:09;8.93;;;4.67;;
6117;SDS011;3089;48.202;11.510;2023-03-08T02:49:37;11.77;;;4.93;;
6117;SDS011;3089;48.202;11.510;2023-03-08T02:52:05;12.50;;;5.90;;
6117;SDS011;3089;48.202;11.510;2023-03-08T02:54:33;10.50;;;5.23;;
6117;SDS011;3089;48.202;11.510;2023-03-08T02:57:01;12.83;;;5.37;;
6117;SDS011;3089;48.202;11.510;2023-03-08T02:59:30;11.33;;;5.23;;
6117;SDS011;3089;48.202;11.510;2023-03-08T03:01:58;11.60;;;5.80;;
6117;SDS011;3089;48.202;11.510;2023-03-08T03:04:28;13.27;;;5.43;;
6117;SDS011;3089;48.202;11.510;2023-03-08T03:06:56;7.83;;;3.63;;
6117;SDS011;3089;48.202;11.510;2023-03-08T03:09:27;11.53;;;5.03;;
6117;SDS011;3089;48.202;11.510;2023-03-08T03:11:55;11.90;;;4.80;;
6117;SDS011;3089;48.202;11.510;2023-03-08T03:14:25;10.30;;;5.30;;
6117;SDS011;3089;48.202;11.510;2023-03-08T03:16:54;12.30;;;5.87;;
6117;SDS011;3089;48.202;11.510;2023-03-08T03:19:22;9.80;;;4.57;;
6117;SDS011;3089;48.202;11.510;2023-03-08T03:21:50;9.83;;;4.63;;
6117;SDS011;3089;48.202;11.510;2023-03-08T03:24:18;15.30;;;5.53;;
6117;SDS011;3089;48.202;11.510;2023-03-08T03:26:48;12.97;;;5.47;;
6117;SDS011;3089;48.202;11.510;2023-03-08T03:29:16;10.50;;;4.97;;
6117;SDS011;3089;48.202;11.510;2023-03-08T03:31:44;13.23;;;5.17;;
6117;SDS011;3089;48.202;11.510;2023-03-08T03:34:14;12.13;;;4.97;;
6117;SDS011;3089;48.202;11.510;2023-03-08T03:36:42;12.40;;;5.27;;
6117;SDS011;3089;48.202;11.510;2023-03-08T03:39:10;8.97;;;4.13;;
6117;SDS011;3089;48.202;11.510;2023-03-08T03:41:38;14.10;;;5.60;;
6117;SDS011;3089;48.202;11.510;2023-03-08T03:44:06;15.10;;;6.17;;
6117;SDS011;3089;48.202;11.510;2023-03-08T03:46:34;11.57;;;5.97;;
6117;SDS011;3089;48.202;11.510;2023-03-08T03:49:02;14.30;;;5.67;;
6117;SDS011;3089;48.202;11.510;2023-03-08T03:51:31;12.67;;;4.93;;
6117;SDS011;3089;48.202;11.510;2023-03-08T03:53:59;10.10;;;4.80;;
6117;SDS011;3089;48.202;11.510;2023-03-08T03:56:27;11.33;;;5.80;;
6117;SDS011;3089;48.202;11.510;2023-03-08T03:58:55;11.87;;;5.37;;
6117;SDS011;3089;48.202;11.510;2023-03-08T04:01:24;12.30;;;6.07;;
6117;SDS011;3089;48.202;11.510;2023-03-08T04:03:53;12.57;;;6.17;;
6117;SDS011;3089;48.202;11.510;2023-03-08T04:06:22;11.10;;;5.37;;
6117;SDS011;3089;48.202;11.510;2023-03-08T04:08:53;15.40;;;5.93;;
6117;SDS011;3089;48.202;11.510;2023-03-08T04:11:23;12.23;;;5.60;;
6117;SDS011;3089;48.202;11.510;2023-03-08T04:13:52;13.50;;;6.23;;
6117;SDS011;3089;48.202;11.510;2023-03-08T04:16:23;17.30;;;8.37;;
6117;SDS011;3089;48.202;11.510;2023-03-08T04:18:55;12.47;;;5.50;;
6117;SDS011;3089;48.202;11.510;2023-03-08T04:21:25;10.30;;;4.73;;
6117;SDS011;3089;48.202;11.510;2023-03-08T04:23:55;14.80;;;5.93;;
6117;SDS011;3089;48.202;11.510;2023-03-08T04:26:25;13.80;;;5.87;;
6117;SDS011;3089;48.202;11.510;2023-03-08T04:28:54;13.03;;;5.53;;
6117;SDS011;3089;48.202;11.510;2023-03-08T04:31:23;11.70;;;5.13;;
6117;SDS011;3089;48.202;11.510;2023-03-08T04:33:52;13.50;;;6.43;;
6117;SDS011;3089;48.202;11.510;2023-03-08T04:36:20;16.90;;;5.80;;
6117;SDS011;3089;48.202;11.510;2023-03-08T04:38:48;11.83;;;5.27;;
6117;SDS011;3089;48.202;11.510;2023-03-08T04:41:18;17.53;;;6.70;;
6117;SDS011;3089;48.202;11.510;2023-03-08T04:43:47;12.27;;;6.73;;
6117;SDS011;3089;48.202;11.510;2023-03-08T04:46:16;11.40;;;5.60;;
6117;SDS011;3089;48.202;11.510;2023-03-08T04:48:46;10.70;;;6.17;;
6117;SDS011;3089;48.202;11.510;2023-03-08T04:51:15;14.63;;;6.40;;
6117;SDS011;3089;48.202;11.510;2023-03-08T04:53:43;13.33;;;6.20;;
6117;SDS011;3089;48.202;11.510;2023-03-08T04:56:11;14.83;;;5.70;;
6117;SDS011;3089;48.202;11.510;2023-03-08T04:58:41;14.60;;;5.70;;
6117;SDS011;3089;48.202;11.510;2023-03-08T05:01:10;20.33;;;6.30;;
6117;SDS011;3089;48.202;11.510;2023-03-08T05:03:39;20.83;;;7.03;;
6117;SDS011;3089;48.202;11.510;2023-03-08T05:06:08;12.57;;;5.80;;
6117;SDS011;3089;48.202;11.510;2023-03-08T05:08:36;13.30;;;6.10;;
6117;SDS011;3089;48.202;11.510;2023-03-08T05:11:04;14.00;;;6.50;;
6117;SDS011;3089;48.202;11.510;2023-03-08T05:13:33;12.70;;;5.70;;
6117;SDS011;3089;48.202;11.510;2023-03-08T05:16:04;15.40;;;6.03;;
6117;SDS011;3089;48.202;11.510;2023-03-08T05:18:34;9.60;;;5.57;;
6117;SDS011;3089;48.202;11.510;2023-03-08T05:21:03;16.17;;;5.83;;
6117;SDS011;3089;48.202;11.510;2023-03-08T05:23:33;14.47;;;5.83;;
6117;SDS011;3089;48.202;11.510;2023-03-08T05:26:01;13.03;;;6.53;;
6117;SDS011;3089;48.202;11.510;2023-03-08T05:28:32;12.13;;;5.50;;
6117;SDS011;3089;48.202;11.510;2023-03-08T05:31:04;13.77;;;6.40;;
6117;SDS011;3089;48.202;11.510;2023-03-08T05:33:33;17.67;;;6.30;;
6117;SDS011;3089;48.202;11.510;2023-03-08T05:36:02;17.63;;;6.67;;
6117;SDS011;3089;48.202;11.510;2023-03-08T05:38:31;13.50;;;6.23;;
6117;SDS011;3089;48.202;11.510;2023-03-08T05:40:59;11.40;;;5.10;;
6117;SDS011;3089;48.202;11.510;2023-03-08T05:43:28;15.60;;;6.03;;
6117;SDS011;3089;48.202;11.510;2023-03-08T05:45:57;16.27;;;5.30;;
6117;SDS011;3089;48.202;11.510;2023-03-08T05:48:27;17.00;;;5.90;;
6117;SDS011;3089;48.202;11.510;2023-03-08T05:50:56;12.87;;;6.20;;
6117;SDS011;3089;48.202;11.510;2023-03-08T05:53:24;16.73;;;7.10;;
6117;SDS011;3089;48.202;11.510;2023-03-08T05:55:52;14.97;;;6.67;;
6117;SDS011;3089;48.202;11.510;2023-03-08T05:58:21;16.10;;;6.53;;
6117;SDS011;3089;48.202;11.510;2023-03-08T06:00:49;14.37;;;6.83;;
6117;SDS011;3089;48.202;11.510;2023-03-08T06:03:17;14.67;;;6.40;;
6117;SDS011;3089;48.202;11.510;2023-03-08T06:05:46;13.90;;;6.47;;
6117;SDS011;3089;48.202;11.510;2023-03-08T06:08:14;13.03;;;6.60;;
6117;SDS011;3089;48.202;11.510;2023-03-08T06:10:41;16.43;;;5.77;;
6117;SDS011;3089;48.202;11.510;2023-03-08T06:13:09;17.27;;;8.07;;
6117;SDS011;3089;48.202;11.510;2023-03-08T06:15:37;21.67;;;6.20;;
6117;SDS011;3089;48.202;11.510;2023-03-08T06:18:05;15.90;;;7.00;;
6117;SDS011;3089;48.202;11.510;2023-03-08T06:20:32;14.23;;;7.47;;
6117;SDS011;3089;48.202;11.510;2023-03-08T06:23:02;17.00;;;6.27;;
6117;SDS011;3089;48.202;11.510;2023-03-08T06:25:29;17.27;;;7.10;;
6117;SDS011;3089;48.202;11.510;2023-03-08T06:27:57;13.60;;;6.77;;
6117;SDS011;3089;48.202;11.510;2023-03-08T06:30:25;21.07;;;6.40;;
6117;SDS011;3089;48.202;11.510;2023-03-08T06:32:53;17.73;;;7.90;;
6117;SDS011;3089;48.202;11.510;2023-03-08T06:35:21;17.63;;;7.20;;
6117;SDS011;3089;48.202;11.510;2023-03-08T06:37:49;15.07;;;6.33;;
6117;SDS011;3089;48.202;11.510;2023-03-08T06:40:18;14.67;;;7.07;;
6117;SDS011;3089;48.202;11.510;2023-03-08T06:42:46;13.73;;;6.83;;
6117;SDS011;3089;48.202;11.510;2023-03-08T06:45:13;17.50;;;8.10;;
6117;SDS011;3089;48.202;11.510;2023-03-08T06:47:41;16.23;;;7.57;;
6117;SDS011;3089;48.202;11.510;2023-03-08T06:50:09;18.20;;;8.53;;
6117;SDS011;3089;48.202;11.510;2023-03-08T06:52:38;16.63;;;7.77;;
6117;SDS011;3089;48.202;11.510;2023-03-08T06:55:06;16.10;;;6.63;;
6117;SDS011;3089;48.202;11.510;2023-03-08T06:57:35;15.87;;;7.80;;
6117;SDS011;3089;48.202;11.510;2023-03-08T07:00:04;15.80;;;7.20;;
6117;SDS011;3089;48.202;11.510;2023-03-08T07:02:34;17.87;;;7.57;;
6117;SDS011;3089;48.202;11.510;2023-03-08T07:05:02;14.97;;;6.80;;
6117;SDS011;3089;48.202;11.510;2023-03-08T07:07:30;15.20;;;7.47;;
6117;SDS011;3089;48.202;11.510;2023-03-08T07:09:58;19.60;;;7.03;;
6117;SDS011;3089;48.202;11.510;2023-03-08T07:12:26;16.77;;;7.40;;
6117;SDS011;3089;48.202;11.510;2023-03-08T07:14:57;16.57;;;7.70;;
6117;SDS011;3089;48.202;11.510;2023-03-08T07:17:25;15.60;;;8.60;;
6117;SDS011;3089;48.202;11.510;2023-03-08T07:19:53;16.83;;;7.77;;
6117;SDS011;3089;48.202;11.510;2023-03-08T07:22:21;16.30;;;6.50;;
6117;SDS011;3089;48.202;11.510;2023-03-08T07:24:49;17.13;;;7.47;;
6117;SDS011;3089;48.202;11.510;2023-03-08T07:27:16;16.67;;;7.43;;
6117;SDS011;3089;48.202;11.510;2023-03-08T07:29:44;15.43;;;7.60;;
6117;SDS011;3089;48.202;11.510;2023-03-08T07:32:13;15.40;;;7.93;;
6117;SDS011;3089;48.202;11.510;2023-03-08T07:34:41;25.97;;;7.43;;
6117;SDS011;3089;48.202;11.510;2023-03-08T07:37:10;17.30;;;7.63;;
6117;SDS011;3089;48.202;11.510;2023-03-08T07:39:38;18.80;;;7.37;;
6117;SDS011;3089;48.202;11.510;2023-03-08T07:42:06;20.00;;;7.13;;
6117;SDS011;3089;48.202;11.510;2023-03-08T07:44:34;17.30;;;7.37;;
6117;SDS011;3089;48.202;11.510;2023-03-08T07:47:02;15.30;;;6.83;;
6117;SDS011;3089;48.202;11.510;2023-03-08T07:49:32;13.93;;;6.40;;
6117;SDS011;3089;48.202;11.510;2023-03-08T07:52:00;14.90;;;7.57;;
6117;SDS011;3089;48.202;11.510;2023-03-08T07:54:28;19.50;;;7.80;;
6117;SDS011;3089;48.202;11.510;2023-03-08T07:56:56;18.00;;;7.40;;
6117;SDS011;3089;48.202;11.510;2023-03-08T07:59:24;13.23;;;6.03;;
6117;SDS011;3089;48.202;11.510;2023-03-08T08:01:52;15.80;;;7.27;;
6117;SDS011;3089;48.202;11.510;2023-03-08T08:04:20;17.50;;;6.53;;
6117;SDS011;3089;48.202;11.510;2023-03-08T08:06:49;21.03;;;8.77;;
6117;SDS011;3089;48.202;11.510;2023-03-08T08:09:17;14.17;;;7.83;;
6117;SDS011;3089;48.202;11.510;2023-03-08T08:11:45;17.77;;;7.30;;
6117;SDS011;3089;48.202;11.510;2023-03-08T08:14:13;29.43;;;8.20;;
6117;SDS011;3089;48.202;11.510;2023-03-08T08:16:41;14.77;;;7.40;;
6117;SDS011;3089;48.202;11.510;2023-03-08T08:19:09;14.00;;;7.73;;
6117;SDS011;3089;48.202;11.510;2023-03-08T08:21:37;19.63;;;8.87;;
6117;SDS011;3089;48.202;11.510;2023-03-08T08:24:07;12.87;;;6.70;;
6117;SDS011;3089;48.202;11.510;2023-03-08T08:26:35;14.17;;;6.73;;
6117;SDS011;3089;48.202;11.510;2023-03-08T08:29:02;14.10;;;7.53;;
6117;SDS011;3089;48.202;11.510;2023-03-08T08:31:30;16.03;;;7.13;;
6117;SDS011;3089;48.202;11.510;2023-03-08T08:33:58;15.20;;;6.77;;
6117;SDS011;3089;48.202;11.510;2023-03-08T08:36:27;16.63;;;7.13;;
6117;SDS011;3089;48.202;11.510;2023-03-08T08:38:54;15.47;;;7.30;;
6117;SDS011;3089;48.202;11.510;2023-03-08T08:41:23;16.83;;;8.60;;
6117;SDS011;3089;48.202;11.510;2023-03-08T08:43:53;13.97;;;6.67;;
6117;SDS011;3089;48.202;11.510;2023-03-08T08:46:24;14.40;;;7.23;;
6117;SDS011;3089;48.202;11.510;2023-03-08T08:48:52;14.17;;;7.37;;
6117;SDS011;3089;48.202;11.510;2023-03-08T08:51:21;12.83;;;5.80;;
6117;SDS011;3089;48.202;11.510;2023-03-08T08:53:49;17.10;;;6.93;;
6117;SDS011;3089;48.202;11.510;2023-03-08T08:56:18;17.10;;;7.23;;
6117;SDS011;3089;48.202;11.510;2023-03-08T08:58:56;17.23;;;7.37;;
6117;SDS011;3089;48.202;11.510;2023-03-08T09:01:26;15.63;;;7.27;;
6117;SDS011;3089;48.202;11.510;2023-03-08T09:03:56;18.03;;;7.90;;
6117;SDS011;3089;48.202;11.510;2023-03-08T09:06:26;16.07;;;6.40;;
6117;SDS011;3089;48.202;11.510;2023-03-08T09:08:55;14.80;;;7.80;;
6117;SDS011;3089;48.202;11.510;2023-03-08T09:11:24;14.17;;;7.10;;
6117;SDS011;3089;48.202;11.510;2023-03-08T09:13:53;14.33;;;7.37;;
6117;SDS011;3089;48.202;11.510;2023-03-08T09:16:23;16.67;;;7.83;;
6117;SDS011;3089;48.202;11.510;2023-03-08T09:18:53;16.33;;;7.33;;
6117;SDS011;3089;48.202;11.510;2023-03-08T09:21:22;16.67;;;7.50;;
6117;SDS011;3089;48.202;11.510;2023-03-08T09:23:51;16.30;;;6.90;;
6117;SDS011;3089;48.202;11.510;2023-03-08T09:26:19;15.27;;;6.20;;
6117;SDS011;3089;48.202;11.510;2023-03-08T09:28:47;12.97;;;6.70;;
6117;SDS011;3089;48.202;11.510;2023-03-08T09:31:15;13.90;;;6.00;;
6117;SDS011;3089;48.202;11.510;2023-03-08T09:33:46;15.23;;;6.03;;
6117;SDS011;3089;48.202;11.510;2023-03-08T09:36:17;12.20;;;5.20;;
6117;SDS011;3089;48.202;11.510;2023-03-08T09:38:45;12.57;;;6.50;;
6117;SDS011;3089;48.202;11.510;2023-03-08T09:41:20;15.30;;;7.47;;
6117;SDS011;3089;48.202;11.510;2023-03-08T09:44:08;14.53;;;7.17;;
6117;SDS011;3089;48.202;11.510;2023-03-08T09:46:43;18.00;;;7.70;;
6117;SDS011;3089;48.202;11.510;2023-03-08T09:49:17;13.20;;;6.97;;
6117;SDS011;3089;48.202;11.510;2023-03-08T09:51:49;15.40;;;7.10;;
6117;SDS011;3089;48.202;11.510;2023-03-08T09:54:25;22.37;;;7.13;;
6117;SDS011;3089;48.202;11.510;2023-03-08T09:56:54;13.23;;;6.53;;
6117;SDS011;3089;48.202;11.510;2023-03-08T09:59:24;13.77;;;7.00;;
6117;SDS011;3089;48.202;11.510;2023-03-08T10:01:59;20.60;;;8.00;;
6117;SDS011;3089;48.202;11.510;2023-03-08T10:04:37;15.30;;;7.57;;
6117;SDS011;3089;48.202;11.510;2023-03-08T10:07:39;16.90;;;8.27;;
6117;SDS011;3089;48.202;11.510;2023-03-08T10:10:22;19.53;;;6.90;;
6117;SDS011;3089;48.202;11.510;2023-03-08T10:13:03;20.63;;;7.47;;
6117;SDS011;3089;48.202;11.510;2023-03-08T10:15:46;15.37;;;7.70;;
6117;SDS011;3089;48.202;11.510;2023-03-08T10:18:18;15.43;;;6.83;;
6117;SDS011;3089;48.202;11.510;2023-03-08T10:20:58;18.20;;;8.40;;
6117;SDS011;3089;48.202;11.510;2023-03-08T10:23:28;18.80;;;9.27;;
6117;SDS011;3089;48.202;11.510;2023-03-08T10:25:57;17.57;;;8.23;;
6117;SDS011;3089;48.202;11.510;2023-03-08T10:28:27;25.57;;;8.03;;
6117;SDS011;3089;48.202;11.510;2023-03-08T10:30:56;23.40;;;9.07;;
6117;SDS011;3089;48.202;11.510;2023-03-08T10:33:26;18.70;;;9.53;;
6117;SDS011;3089;48.202;11.510;2023-03-08T10:36:01;13.73;;;7.27;;
6117;SDS011;3089;48.202;11.510;2023-03-08T10:38:32;13.27;;;6.93;;
6117;SDS011;3089;48.202;11.510;2023-03-08T10:41:02;15.33;;;8.57;;
6117;SDS011;3089;48.202;11.510;2023-03-08T10:43:33;21.90;;;8.80;;
6117;SDS011;3089;48.202;11.510;2023-03-08T10:46:05;20.13;;;8.67;;
6117;SDS011;3089;48.202;11.510;2023-03-08T10:48:39;7.07;;;3.47;;
6117;SDS011;3089;48.202;11.510;2023-03-08T10:51:16;9.80;;;2.30;;
6117;SDS011;3089;48.202;11.510;2023-03-08T10:53:52;7.53;;;2.80;;
6117;SDS011;3089;48.202;11.510;2023-03-08T10:56:22;10.90;;;4.93;;
6117;SDS011;3089;48.202;11.510;2023-03-08T10:58:55;11.33;;;4.60;;
6117;SDS011;3089;48.202;11.510;2023-03-08T11:01:25;13.00;;;5.50;;
6117;SDS011;3089;48.202;11.510;2023-03-08T11:03:57;18.30;;;7.53;;
6117;SDS011;3089;48.202;11.510;2023-03-08T11:06:31;21.17;;;6.10;;
6117;SDS011;3089;48.202;11.510;2023-03-08T11:09:02;12.00;;;5.27;;
6117;SDS011;3089;48.202;11.510;2023-03-08T11:11:39;13.27;;;5.60;;
6117;SDS011;3089;48.202;11.510;2023-03-08T11:14:08;12.40;;;5.20;;
6117;SDS011;3089;48.202;11.510;2023-03-08T11:16:54;11.50;;;5.50;;
6117;SDS011;3089;48.202;11.510;2023-03-08T11:19:38;8.77;;;4.03;;
6117;SDS011;3089;48.202;11.510;2023-03-08T11:22:27;13.70;;;5.10;;
6117;SDS011;3089;48.202;11.510;2023-03-08T11:25:10;14.63;;;3.90;;
6117;SDS011;3089;48.202;11.510;2023-03-08T11:27:47;9.10;;;4.20;;
6117;SDS011;3089;48.202;11.510;2023-03-08T11:30:26;8.33;;;4.20;;
6117;SDS011;3089;48.202;11.510;2023-03-08T11:33:15;8.53;;;3.83;;
6117;SDS011;3089;48.202;11.510;2023-03-08T11:35:58;8.60;;;4.00;;
6117;SDS011;3089;48.202;11.510;2023-03-08T11:38:34;12.60;;;4.57;;
6117;SDS011;3089;48.202;11.510;2023-03-08T11:41:04;9.30;;;4.67;;
6117;SDS011;3089;48.202;11.510;2023-03-08T11:43:55;11.03;;;4.20;;
6117;SDS011;3089;48.202;11.510;2023-03-08T11:46:44;8.63;;;3.97;;
6117;SDS011;3089;48.202;11.510;2023-03-08T11:49:28;9.30;;;3.47;;
6117;SDS011;3089;48.202;11.510;2023-03-08T11:52:09;7.70;;;3.20;;
6117;SDS011;3089;48.202;11.510;2023-03-08T11:54:51;10.13;;;3.53;;
6117;SDS011;3089;48.202;11.510;2023-03-08T11:57:28;9.23;;;3.53;;
6117;SDS011;3089;48.202;11.510;2023-03-08T12:00:02;6.93;;;3.20;;
6117;SDS011;3089;48.202;11.510;2023-03-08T12:02:40;7.90;;;3.60;;
6117;SDS011;3089;48.202;11.510;2023-03-08T12:05:12;11.07;;;4.00;;
6117;SDS011;3089;48.202;11.510;2023-03-08T12:07:49;8.90;;;3.23;;
6117;SDS011;3089;48.202;11.510;2023-03-08T12:10:22;9.73;;;4.23;;
6117;SDS011;3089;48.202;11.510;2023-03-08T12:12:54;6.83;;;3.47;;
6117;SDS011;3089;48.202;11.510;2023-03-08T12:15:27;7.63;;;3.70;;
6117;SDS011;3089;48.202;11.510;2023-03-08T12:18:00;10.23;;;3.57;;
6117;SDS011;3089;48.202;11.510;2023-03-08T12:20:37;5.20;;;2.53;;
6117;SDS011;3089;48.202;11.510;2023-03-08T12:23:10;9.93;;;3.13;;
6117;SDS011;3089;48.202;11.510;2023-03-08T12:25:47;6.23;;;3.10;;
6117;SDS011;3089;48.202;11.510;2023-03-08T12:28:19;6.03;;;2.80;;
6117;SDS011;3089;48.202;11.510;2023-03-08T12:30:56;8.20;;;3.30;;
6117;SDS011;3089;48.202;11.510;2023-03-08T12:33:51;6.97;;;3.10;;
6117;SDS011;3089;48.202;11.510;2023-03-08T12:36:20;8.40;;;2.87;;
6117;SDS011;3089;48.202;11.510;2023-03-08T12:38:49;6.93;;;2.70;;
6117;SDS011;3089;48.202;11.510;2023-03-08T12:41:25;5.40;;;2.23;;
6117;SDS011;3089;48.202;11.510;2023-03-08T12:43:57;11.30;;;3.50;;
6117;SDS011;3089;48.202;11.510;2023-03-08T12:46:26;6.33;;;2.90;;
6117;SDS011;3089;48.202;11.510;2023-03-08T12:48:54;8.97;;;2.73;;
6117;SDS011;3089;48.202;11.510;2023-03-08T12:51:24;6.43;;;3.07;;
6117;SDS011;3089;48.202;11.510;2023-03-08T12:53:58;5.80;;;2.73;;
6117;SDS011;3089;48.202;11.510;2023-03-08T12:56:29;9.73;;;3.83;;
6117;SDS011;3089;48.202;11.510;2023-03-08T12:59:00;6.70;;;2.33;;
6117;SDS011;3089;48.202;11.510;2023-03-08T13:01:58;6.30;;;2.93;;
6117;SDS011;3089;48.202;11.510;2023-03-08T13:04:28;6.60;;;2.97;;
6117;SDS011;3089;48.202;11.510;2023-03-08T13:07:09;6.83;;;2.53;;
6117;SDS011;3089;48.202;11.510;2023-03-08T13:09:46;9.23;;;2.77;;
6117;SDS011;3089;48.202;11.510;2023-03-08T13:12:26;5.87;;;1.90;;
6117;SDS011;3089;48.202;11.510;2023-03-08T13:15:06;6.70;;;1.77;;
6117;SDS011;3089;48.202;11.510;2023-03-08T13:17:48;2.30;;;0.87;;
6117;SDS011;3089;48.202;11.510;2023-03-08T13:20:19;3.47;;;1.30;;
6117;SDS011;3089;48.202;11.510;2023-03-08T13:22:53;2.53;;;1.00;;
6117;SDS011;3089;48.202;11.510;2023-03-08T13:25:38;2.20;;;0.70;;
6117;SDS011;3089;48.202;11.510;2023-03-08T13:28:14;3.37;;;1.37;;
6117;SDS011;3089;48.202;11.510;2023-03-08T13:30:44;4.40;;;1.33;;
6117;SDS011;3089;48.202;11.510;2023-03-08T13:33:19;2.30;;;0.67;;
6117;SDS011;3089;48.202;11.510;2023-03-08T13:35:55;3.03;;;1.00;;
6117;SDS011;3089;48.202;11.510;2023-03-08T13:38:25;2.30;;;0.80;;
6117;SDS011;3089;48.202;11.510;2023-03-08T13:40:55;2.60;;;0.70;;
6117;SDS011;3089;48.202;11.510;2023-03-08T13:43:27;3.80;;;1.00;;
6117;SDS011;3089;48.202;11.510;2023-03-08T13:45:57;4.33;;;0.97;;
6117;SDS011;3089;48.202;11.510;2023-03-08T13:48:27;2.80;;;1.00;;
6117;SDS011;3089;48.202;11.510;2023-03-08T13:50:57;4.17;;;0.77;;
6117;SDS011;3089;48.202;11.510;2023-03-08T13:53:26;2.73;;;1.00;;
6117;SDS011;3089;48.202;11.510;2023-03-08T13:55:56;2.83;;;1.10;;
6117;SDS011;3089;48.202;11.510;2023-03-08T13:58:30;5.97;;;1.07;;
6117;SDS011;3089;48.202;11.510;2023-03-08T14:01:00;2.73;;;0.80;;
6117;SDS011;3089;48.202;11.510;2023-03-08T14:03:30;2.87;;;1.43;;
6117;SDS011;3089;48.202;11.510;2023-03-08T14:05:58;2.03;;;0.60;;
6117;SDS011;3089;48.202;11.510;2023-03-08T14:08:27;3.00;;;1.10;;
6117;SDS011;3089;48.202;11.510;2023-03-08T14:10:56;2.80;;;0.90;;
6117;SDS011;3089;48.202;11.510;2023-03-08T14:13:31;5.53;;;1.10;;
6117;SDS011;3089;48.202;11.510;2023-03-08T14:16:01;2.80;;;0.80;;
6117;SDS011;3089;48.202;11.510;2023-03-08T14:18:32;3.00;;;0.67;;
6117;SDS011;3089;48.202;11.510;2023-03-08T14:21:03;2.07;;;0.60;;
6117;SDS011;3089;48.202;11.510;2023-03-08T14:23:35;3.27;;;1.03;;
6117;SDS011;3089;48.202;11.510;2023-03-08T14:26:21;3.70;;;1.00;;
6117;SDS011;3089;48.202;11.510;2023-03-08T14:29:02;2.17;;;0.70;;
6117;SDS011;3089;48.202;11.510;2023-03-08T14:31:36;6.65;;;1.10;;
6117;SDS011;3089;48.202;11.510;2023-03-08T14:34:15;2.43;;;0.90;;
6117;SDS011;3089;48.202;11.510;2023-03-08T14:36:47;2.70;;;0.80;;
6117;SDS011;3089;48.202;11.510;2023-03-08T14:39:19;3.53;;;1.10;;
6117;SDS011;3089;48.202;11.510;2023-03-08T14:41:49;3.80;;;1.33;;
6117;SDS011;3089;48.202;11.510;2023-03-08T14:44:20;2.87;;;0.87;;
6117;SDS011;3089;48.202;11.510;2023-03-08T14:46:50;8.03;;;1.13;;
6117;SDS011;3089;48.202;11.510;2023-03-08T14:49:24;2.40;;;0.90;;
6117;SDS011;3089;48.202;11.510;2023-03-08T14:51:53;1.97;;;0.60;;
6117;SDS011;3089;48.202;11.510;2023-03-08T14:54:31;2.57;;;0.80;;
6117;SDS011;3089;48.202;11.510;2023-03-08T14:57:01;6.73;;;1.00;;
6117;SDS011;3089;48.202;11.510;2023-03-08T14:59:43;3.37;;;1.20;;
6117;SDS011;3089;48.202;11.510;2023-03-08T15:02:12;2.63;;;0.80;;
6117;SDS011;3089;48.202;11.510;2023-03-08T15:04:42;2.90;;;0.80;;
6117;SDS011;3089;48.202;11.510;2023-03-08T15:07:13;3.63;;;0.90;;
6117;SDS011;3089;48.202;11.510;2023-03-08T15:09:45;3.57;;;0.77;;
6117;SDS011;3089;48.202;11.510;2023-03-08T15:12:13;3.03;;;0.80;;